Time;durP1;ratioP1;P1;durP2;ratioP2;P2;SDS_P1;SDS_P2;PMS_P1;PMS_P2;Temp;Humidity;BMP_temperature;BMP_pressure;BME280_temperature;BME280_humidity;BME280_pressure;Samples;Min_cycle;Max_cycle;Signal;HPM_P1;HPM_P2
2022/03/05 00:00:46;;;;;;;12.37;6.93;;;-0.10;99.90;;;;;;5033423;28;20037;-85
2022/03/05 00:03:12;;;;;;;13.10;7.03;;;-0.20;99.90;;;;;;5025611;28;20087;-84
2022/03/05 00:05:39;;;;;;;10.87;7.03;;;-0.20;99.90;;;;;;5017140;28;20091;-85
2022/03/05 00:08:05;;;;;;;10.87;7.07;;;-0.20;99.90;;;;;;5025342;28;20075;-85
2022/03/05 00:10:31;;;;;;;11.73;6.80;;;-0.30;99.90;;;;;;5007492;28;20082;-86
2022/03/05 00:12:57;;;;;;;10.37;6.80;;;-0.30;99.90;;;;;;5033273;28;20049;-86
2022/03/05 00:15:26;;;;;;;11.60;6.67;;;-0.30;99.90;;;;;;5028698;28;20053;-86
2022/03/05 00:17:53;;;;;;;13.13;7.53;;;-0.30;99.90;;;;;;5002110;28;20032;-86
2022/03/05 00:20:19;;;;;;;10.10;6.70;;;-0.40;99.90;;;;;;5034068;28;20403;-86
2022/03/05 00:22:46;;;;;;;11.67;7.00;;;-0.30;99.90;;;;;;5033734;28;20112;-86
2022/03/05 00:25:12;;;;;;;11.20;6.93;;;-0.40;99.90;;;;;;5032867;28;20049;-86
2022/03/05 00:27:38;;;;;;;10.97;6.73;;;-0.40;99.90;;;;;;5033505;28;20056;-86
2022/03/05 00:30:04;;;;;;;11.00;7.30;;;-0.50;99.90;;;;;;5031713;28;20049;-86
2022/03/05 00:32:30;;;;;;;11.97;7.00;;;-0.50;99.90;;;;;;5032019;28;20029;-84
2022/03/05 00:34:56;;;;;;;10.50;6.53;;;-0.30;99.90;;;;;;5016776;28;20053;-85
2022/03/05 00:37:22;;;;;;;10.83;6.90;;;-0.50;99.90;;;;;;5028626;28;20051;-86
2022/03/05 00:39:47;;;;;;;11.10;7.20;;;-0.50;99.90;;;;;;5034362;28;20081;-86
2022/03/05 00:42:13;;;;;;;15.70;7.37;;;-0.60;99.90;;;;;;5034162;28;20080;-86
2022/03/05 00:44:39;;;;;;;11.80;6.90;;;-0.60;99.90;;;;;;5033569;28;20120;-86
2022/03/05 00:47:05;;;;;;;12.90;7.37;;;-0.60;99.90;;;;;;5015530;28;20037;-85
2022/03/05 00:49:32;;;;;;;11.50;6.83;;;-0.60;99.90;;;;;;5050139;28;20044;-86
2022/03/05 00:51:57;;;;;;;13.57;6.60;;;-0.60;99.90;;;;;;5033111;28;20056;-86
2022/03/05 00:54:23;;;;;;;12.80;6.97;;;-0.60;99.90;;;;;;5051326;28;20037;-87
2022/03/05 00:56:49;;;;;;;11.40;7.10;;;-0.60;99.90;;;;;;5033629;28;20048;-90
2022/03/05 00:59:14;;;;;;;11.50;7.07;;;-0.20;99.90;;;;;;5032954;28;20033;-90
2022/03/05 01:01:40;;;;;;;9.73;6.10;;;-0.70;99.90;;;;;;5033561;28;20052;-90
2022/03/05 01:04:06;;;;;;;12.07;7.07;;;-0.60;99.90;;;;;;5050993;28;20530;-89
2022/03/05 01:06:32;;;;;;;10.13;6.30;;;-0.70;99.90;;;;;;5053362;28;20525;-88
2022/03/05 01:08:59;;;;;;;11.90;7.07;;;-0.70;99.90;;;;;;5037989;28;20146;-90
2022/03/05 01:11:25;;;;;;;13.23;7.00;;;-0.80;99.90;;;;;;5017551;28;20081;-90
2022/03/05 01:13:51;;;;;;;9.73;6.50;;;-0.80;99.90;;;;;;5034855;28;20072;-90
2022/03/05 01:16:17;;;;;;;11.37;7.20;;;-0.90;99.90;;;;;;5033725;28;20041;-90
2022/03/05 01:18:42;;;;;;;11.43;7.23;;;-0.90;99.90;;;;;;5035856;28;20045;-91
2022/03/05 01:21:08;;;;;;;12.50;7.20;;;-0.90;99.90;;;;;;5054106;28;20033;-89
2022/03/05 01:23:33;;;;;;;11.27;7.07;;;-0.90;99.90;;;;;;5036996;28;20475;-90
2022/03/05 01:25:59;;;;;;;13.10;7.13;;;-1.00;99.90;;;;;;5024326;28;20045;-89
2022/03/05 01:28:25;;;;;;;13.43;7.17;;;-1.00;99.90;;;;;;5017179;28;20068;-89
2022/03/05 01:30:50;;;;;;;10.30;6.73;;;-1.00;99.90;;;;;;5050082;28;20621;-88
2022/03/05 01:33:17;;;;;;;11.17;7.13;;;-1.00;99.90;;;;;;5017840;28;20045;-88
2022/03/05 01:35:44;;;;;;;11.77;6.97;;;-0.90;99.90;;;;;;5035751;28;20522;-89
2022/03/05 01:38:09;;;;;;;11.67;6.93;;;-1.00;99.90;;;;;;5027387;28;20120;-90
2022/03/05 01:40:36;;;;;;;12.97;7.27;;;-1.00;99.90;;;;;;5034684;28;20120;-89
2022/03/05 01:43:01;;;;;;;14.43;7.30;;;-1.00;99.90;;;;;;5033006;28;20099;-89
2022/03/05 01:45:27;;;;;;;14.10;7.07;;;-1.00;99.90;;;;;;5032639;28;20033;-90
2022/03/05 01:47:53;;;;;;;11.73;6.83;;;-1.00;99.90;;;;;;5038161;28;20037;-90
2022/03/05 01:50:18;;;;;;;11.00;7.00;;;-0.90;99.90;;;;;;5020686;28;20049;-90
2022/03/05 01:52:44;;;;;;;11.53;6.87;;;-1.10;99.90;;;;;;5037670;28;20124;-90
2022/03/05 01:55:12;;;;;;;11.67;7.27;;;-1.00;99.90;;;;;;5036528;28;20560;-90
2022/03/05 01:57:38;;;;;;;12.63;7.03;;;-1.10;99.90;;;;;;5035526;28;20045;-90
2022/03/05 02:00:06;;;;;;;12.27;6.90;;;-1.00;99.90;;;;;;5036320;28;20049;-90
2022/03/05 02:02:32;;;;;;;11.07;7.07;;;-1.10;99.90;;;;;;5054042;28;20399;-91
2022/03/05 02:04:57;;;;;;;10.67;7.17;;;-1.00;99.90;;;;;;5028176;28;20088;-88
2022/03/05 02:07:23;;;;;;;13.60;8.00;;;-1.20;99.90;;;;;;5019075;28;20071;-90
2022/03/05 02:09:50;;;;;;;14.77;7.57;;;-1.20;99.90;;;;;;5031613;28;20042;-90
2022/03/05 02:12:16;;;;;;;12.87;7.37;;;-1.30;99.90;;;;;;5024741;28;20044;-88
2022/03/05 02:14:41;;;;;;;14.53;8.10;;;-1.20;99.90;;;;;;5031844;28;20053;-90
2022/03/05 02:17:07;;;;;;;11.80;7.20;;;-1.20;99.90;;;;;;5032315;28;20127;-90
2022/03/05 02:19:32;;;;;;;14.93;7.83;;;-1.20;99.90;;;;;;5033883;28;20487;-90
2022/03/05 02:21:58;;;;;;;15.23;7.27;;;-1.30;99.90;;;;;;5016031;28;20046;-89
2022/03/05 02:24:32;;;;;;;11.40;7.17;;;-1.20;99.90;;;;;;5015839;28;20465;-91
2022/03/05 02:27:02;;;;;;;15.03;8.00;;;-1.30;99.90;;;;;;5015853;28;20041;-89
2022/03/05 02:29:30;;;;;;;13.20;7.60;;;-1.40;99.90;;;;;;5016271;28;20049;-90
2022/03/05 02:31:56;;;;;;;12.50;7.27;;;-0.90;99.90;;;;;;5046224;28;20045;-91
2022/03/05 02:34:22;;;;;;;12.57;7.97;;;-1.40;99.90;;;;;;5049423;28;20098;-91
2022/03/05 02:36:48;;;;;;;13.33;7.40;;;-1.40;99.90;;;;;;5053409;28;20488;-89
2022/03/05 02:39:13;;;;;;;13.00;7.17;;;-1.50;99.90;;;;;;5035285;28;20071;-90
2022/03/05 02:41:39;;;;;;;12.87;7.90;;;-1.40;99.90;;;;;;5035387;28;20033;-91
2022/03/05 02:44:05;;;;;;;13.50;7.53;;;-1.40;99.90;;;;;;5018103;28;20041;-90
2022/03/05 02:46:33;;;;;;;10.67;7.07;;;-1.50;99.90;;;;;;5036958;28;20524;-90
2022/03/05 02:48:59;;;;;;;13.70;7.73;;;-1.50;99.90;;;;;;5033470;28;20100;-92
2022/03/05 02:51:24;;;;;;;11.30;6.83;;;-1.50;99.90;;;;;;4999353;28;20045;-91
2022/03/05 02:53:50;;;;;;;12.90;7.20;;;-1.50;99.90;;;;;;5032079;28;20491;-91
2022/03/05 02:56:16;;;;;;;12.80;6.83;;;-1.50;99.90;;;;;;5032024;28;20033;-92
2022/03/05 02:58:41;;;;;;;12.50;7.80;;;-1.50;99.90;;;;;;5015717;28;20107;-90
2022/03/05 03:01:08;;;;;;;13.53;7.50;;;-1.50;99.90;;;;;;5016260;28;20097;-91
2022/03/05 03:03:34;;;;;;;12.10;7.20;;;-1.50;99.90;;;;;;5045032;28;20174;-90
2022/03/05 03:06:00;;;;;;;13.17;6.93;;;-1.60;99.90;;;;;;5048229;28;20056;-91
2022/03/05 03:08:26;;;;;;;11.87;6.93;;;-1.60;99.90;;;;;;5031740;28;20049;-89
2022/03/05 03:10:51;;;;;;;11.63;7.20;;;-1.60;99.90;;;;;;5048367;28;20099;-91
2022/03/05 03:13:17;;;;;;;12.20;7.90;;;-1.50;99.90;;;;;;5035008;28;20044;-91
2022/03/05 03:15:43;;;;;;;10.73;6.90;;;-1.50;99.90;;;;;;5033696;28;20454;-91
2022/03/05 03:18:09;;;;;;;12.00;6.97;;;-1.50;99.90;;;;;;5017573;28;20041;-91
2022/03/05 03:20:34;;;;;;;12.00;7.17;;;-1.60;99.90;;;;;;5014941;28;20044;-91
2022/03/05 03:23:00;;;;;;;12.97;7.57;;;-1.60;99.90;;;;;;5051037;28;20487;-91
2022/03/05 03:25:26;;;;;;;13.93;6.93;;;-1.60;99.90;;;;;;5036862;28;20041;-91
2022/03/05 03:27:51;;;;;;;12.53;7.40;;;-0.90;99.90;;;;;;5032525;28;20637;-91
2022/03/05 03:30:18;;;;;;;10.97;6.80;;;-1.70;99.90;;;;;;5030071;28;20095;-91
2022/03/05 03:32:44;;;;;;;11.57;7.27;;;-1.60;99.90;;;;;;5018861;28;20380;-91
2022/03/05 03:35:12;;;;;;;13.60;7.03;;;-1.70;99.90;;;;;;5031129;28;20475;-91
2022/03/05 03:37:38;;;;;;;10.67;6.67;;;-1.40;99.90;;;;;;5014592;28;20042;-91
2022/03/05 03:40:07;;;;;;;11.73;6.27;;;-1.60;99.90;;;;;;5014697;28;20492;-92
2022/03/05 03:42:34;;;;;;;13.90;7.60;;;-1.70;99.90;;;;;;5014704;28;20041;-91
2022/03/05 03:44:59;;;;;;;10.90;6.40;;;-1.70;99.90;;;;;;5020339;28;20044;-90
2022/03/05 03:47:25;;;;;;;10.07;6.27;;;-1.70;99.90;;;;;;5033655;28;20037;-91
2022/03/05 03:49:51;;;;;;;12.20;7.07;;;-1.80;99.90;;;;;;5017900;28;20130;-90
2022/03/05 03:52:17;;;;;;;13.73;7.20;;;-1.70;99.90;;;;;;5016228;28;20045;-89
2022/03/05 03:54:45;;;;;;;12.03;6.53;;;-1.70;99.90;;;;;;5032456;28;20041;-90
2022/03/05 03:57:11;;;;;;;12.87;7.20;;;-1.80;99.90;;;;;;5032539;28;20124;-90
2022/03/05 03:59:37;;;;;;;11.03;6.87;;;-1.80;99.90;;;;;;5051984;28;20709;-91
2022/03/05 04:02:03;;;;;;;11.13;6.90;;;-1.90;99.90;;;;;;5038051;28;20041;-92
2022/03/05 04:04:29;;;;;;;13.20;6.97;;;-1.80;99.90;;;;;;5014118;28;20129;-91
2022/03/05 04:09:39;;;;;;;11.50;7.33;;;-1.70;99.90;;;;;;5042498;28;20511;-91
2022/03/05 04:12:05;;;;;;;12.37;6.97;;;-1.80;99.90;;;;;;5033983;28;20094;-91
2022/03/05 04:14:30;;;;;;;11.50;6.93;;;-1.90;99.90;;;;;;5016278;28;20032;-91
2022/03/05 04:16:56;;;;;;;10.60;7.20;;;-1.90;99.90;;;;;;5033118;28;20049;-90
2022/03/05 04:19:22;;;;;;;13.60;7.67;;;-1.80;99.90;;;;;;5033705;28;20453;-89
2022/03/05 04:21:47;;;;;;;11.20;6.50;;;-1.10;99.90;;;;;;5036792;28;20025;-89
2022/03/05 04:24:13;;;;;;;12.20;6.47;;;-1.90;99.90;;;;;;4997222;28;20129;-91
2022/03/05 04:26:38;;;;;;;12.23;6.57;;;-1.90;99.90;;;;;;5049573;28;20047;-91
2022/03/05 04:29:04;;;;;;;12.00;7.03;;;-1.90;99.90;;;;;;5051523;28;20044;-90
2022/03/05 04:31:30;;;;;;;11.93;7.33;;;-2.00;99.90;;;;;;5044020;28;20041;-91
2022/03/05 04:33:56;;;;;;;11.53;6.47;;;-1.90;99.90;;;;;;5051384;28;20044;-91
2022/03/05 04:36:22;;;;;;;11.83;6.67;;;-2.00;99.90;;;;;;5050756;28;20043;-91
2022/03/05 04:38:48;;;;;;;11.97;6.53;;;-2.00;99.90;;;;;;5051508;28;20517;-91
2022/03/05 04:41:14;;;;;;;12.73;6.53;;;-2.00;99.90;;;;;;5035231;28;20041;-91
2022/03/05 04:43:39;;;;;;;11.93;6.80;;;-1.70;99.90;;;;;;5037638;28;20422;-91
2022/03/05 04:46:05;;;;;;;11.33;6.93;;;-2.00;99.90;;;;;;5036483;28;20044;-91
2022/03/05 04:48:31;;;;;;;11.63;6.30;;;-2.00;99.90;;;;;;5054587;28;20036;-90
2022/03/05 04:50:56;;;;;;;12.27;7.03;;;-2.00;99.90;;;;;;5036361;28;20460;-90
2022/03/05 04:53:22;;;;;;;12.73;6.57;;;-2.10;99.90;;;;;;5037485;28;20044;-90
2022/03/05 04:55:48;;;;;;;12.90;7.43;;;-1.90;99.90;;;;;;5055097;28;20399;-90
2022/03/05 04:58:14;;;;;;;10.37;6.33;;;-2.10;99.90;;;;;;5055014;28;20064;-90
2022/03/05 05:00:40;;;;;;;11.97;6.77;;;-2.00;99.90;;;;;;5036948;28;20120;-90
2022/03/05 05:03:06;;;;;;;11.33;6.63;;;-2.00;99.90;;;;;;5053052;28;20128;-90
2022/03/05 05:05:32;;;;;;;13.47;6.90;;;-2.00;99.90;;;;;;5022480;28;20479;-90
2022/03/05 05:07:57;;;;;;;12.77;7.50;;;-2.00;99.90;;;;;;5017145;28;20111;-89
2022/03/05 05:10:23;;;;;;;9.97;6.40;;;-1.90;99.90;;;;;;5018699;28;20069;-91
2022/03/05 05:12:49;;;;;;;14.43;7.10;;;-1.90;99.90;;;;;;5050135;28;20032;-90
2022/03/05 05:15:14;;;;;;;12.93;6.53;;;-1.70;99.90;;;;;;5037025;28;20086;-90
2022/03/05 05:17:40;;;;;;;11.70;6.10;;;-2.00;99.90;;;;;;5054004;28;20521;-89
2022/03/05 05:20:07;;;;;;;10.80;6.00;;;-2.10;99.90;;;;;;5046184;28;20113;-88
2022/03/05 05:22:33;;;;;;;10.03;5.93;;;-2.00;99.90;;;;;;5030552;28;20033;-90
2022/03/05 05:25:00;;;;;;;10.37;6.37;;;-2.20;99.90;;;;;;5037080;28;20073;-90
2022/03/05 05:27:26;;;;;;;11.93;7.53;;;-2.10;99.90;;;;;;5054801;28;20048;-89
2022/03/05 05:29:52;;;;;;;11.83;7.23;;;-2.10;99.90;;;;;;5035404;28;20049;-90
2022/03/05 05:32:18;;;;;;;12.17;6.40;;;-2.10;99.90;;;;;;5054425;28;20052;-90
2022/03/05 05:34:43;;;;;;;11.00;6.70;;;-2.10;99.90;;;;;;5036756;28;20063;-90
2022/03/05 05:37:09;;;;;;;11.53;6.93;;;-2.10;99.90;;;;;;5036242;28;20441;-90
2022/03/05 05:39:35;;;;;;;12.43;6.93;;;-2.30;99.90;;;;;;5036196;28;20133;-89
2022/03/05 05:42:01;;;;;;;14.30;7.27;;;-2.20;99.90;;;;;;5038289;28;20068;-90
2022/03/05 05:44:27;;;;;;;11.77;7.37;;;-2.20;99.90;;;;;;5035906;28;20119;-90
2022/03/05 05:46:53;;;;;;;11.40;6.90;;;-2.30;99.90;;;;;;5018284;28;20136;-90
2022/03/05 05:49:18;;;;;;;11.90;6.93;;;-2.30;99.90;;;;;;5048059;28;20045;-89
2022/03/05 05:51:44;;;;;;;14.67;7.73;;;-2.20;99.90;;;;;;5018771;28;20037;-90
2022/03/05 05:54:10;;;;;;;10.53;6.70;;;-2.30;99.90;;;;;;5001337;28;20045;-89
2022/03/05 05:56:35;;;;;;;10.90;7.27;;;-2.30;99.90;;;;;;5016389;28;20055;-89
2022/03/05 05:59:03;;;;;;;12.63;6.83;;;-2.30;99.90;;;;;;5017167;28;20048;-88
2022/03/05 06:01:28;;;;;;;13.77;7.30;;;-2.30;99.90;;;;;;5016787;28;20045;-90
2022/03/05 06:03:54;;;;;;;11.37;6.83;;;-2.30;99.90;;;;;;5000009;28;20121;-89
2022/03/05 06:06:21;;;;;;;11.37;6.60;;;-2.30;99.90;;;;;;5016244;28;20477;-89
2022/03/05 06:08:46;;;;;;;11.83;6.87;;;-2.30;99.90;;;;;;5034939;28;20033;-88
2022/03/05 06:11:12;;;;;;;13.77;7.00;;;-2.30;99.90;;;;;;5026919;28;20037;-89
2022/03/05 06:13:38;;;;;;;11.43;6.63;;;-2.30;99.90;;;;;;5031995;28;20041;-89
2022/03/05 06:16:04;;;;;;;22.93;7.60;;;-2.30;99.90;;;;;;5016210;28;20052;-90
2022/03/05 06:18:30;;;;;;;11.33;7.07;;;-2.30;99.90;;;;;;5032182;28;20049;-90
2022/03/05 06:20:56;;;;;;;12.27;6.73;;;-2.30;99.90;;;;;;5013627;28;20046;-88
2022/03/05 06:23:23;;;;;;;13.03;7.57;;;-2.20;99.90;;;;;;5031847;28;20415;-89
2022/03/05 06:25:49;;;;;;;13.53;7.50;;;-2.30;99.90;;;;;;5029343;28;20045;-89
2022/03/05 06:28:15;;;;;;;13.17;7.17;;;-2.30;99.90;;;;;;5042800;28;20445;-89
2022/03/05 06:30:40;;;;;;;11.97;6.70;;;-2.30;99.90;;;;;;5032404;28;20763;-89
2022/03/05 06:33:06;;;;;;;11.47;6.97;;;-2.30;99.90;;;;;;5015902;28;20055;-88
2022/03/05 06:35:32;;;;;;;12.47;6.83;;;-2.30;99.90;;;;;;5030429;28;20411;-89
2022/03/05 06:37:57;;;;;;;14.27;7.00;;;-1.40;99.90;;;;;;5035617;28;20080;-89
2022/03/05 06:40:23;;;;;;;10.50;6.60;;;-2.30;99.90;;;;;;5053506;28;20037;-90
2022/03/05 06:42:48;;;;;;;11.27;7.17;;;-2.30;99.90;;;;;;5035457;28;20473;-88
2022/03/05 06:45:14;;;;;;;12.40;6.80;;;-2.30;99.90;;;;;;5026728;28;20037;-89
2022/03/05 06:47:40;;;;;;;13.60;7.33;;;-2.20;99.90;;;;;;5030520;28;20041;-89
2022/03/05 06:50:07;;;;;;;11.93;7.53;;;-2.20;99.90;;;;;;5032093;28;20037;-89
2022/03/05 06:52:33;;;;;;;11.97;6.70;;;-2.20;99.90;;;;;;5036540;28;20134;-88
2022/03/05 06:54:59;;;;;;;12.17;7.37;;;-1.90;99.90;;;;;;5010808;28;20494;-90
2022/03/05 06:57:25;;;;;;;12.60;7.07;;;-2.00;99.90;;;;;;5026711;28;20588;-88
2022/03/05 06:59:51;;;;;;;12.03;7.10;;;-2.00;99.90;;;;;;5014472;28;20033;-89
2022/03/05 07:02:17;;;;;;;10.97;7.03;;;-1.90;99.90;;;;;;5012191;28;20175;-89
2022/03/05 07:04:42;;;;;;;14.10;7.33;;;-1.80;99.90;;;;;;5018263;28;20487;-88
2022/03/05 07:07:08;;;;;;;13.90;6.97;;;-1.70;99.90;;;;;;5033316;28;20033;-88
2022/03/05 07:09:34;;;;;;;13.73;7.03;;;-1.70;99.90;;;;;;5014071;28;20124;-88
2022/03/05 07:12:00;;;;;;;11.17;7.20;;;-1.60;99.90;;;;;;5022649;28;20041;-86
2022/03/05 07:14:26;;;;;;;11.63;6.77;;;-1.50;99.90;;;;;;5000249;28;20180;-88
2022/03/05 07:16:52;;;;;;;11.40;7.23;;;-1.40;99.90;;;;;;5032195;28;20081;-88
2022/03/05 07:19:17;;;;;;;13.80;6.97;;;-1.40;99.90;;;;;;5021920;28;20029;-86
2022/03/05 07:21:43;;;;;;;12.30;7.30;;;-1.30;99.90;;;;;;5014992;28;20037;-88
2022/03/05 07:24:08;;;;;;;12.30;8.00;;;-1.20;99.90;;;;;;5015052;28;20498;-86
2022/03/05 07:26:35;;;;;;;12.73;7.53;;;-1.20;99.90;;;;;;5033576;28;20045;-86
2022/03/05 07:29:00;;;;;;;15.07;8.03;;;-1.10;99.90;;;;;;5030045;28;20091;-88
2022/03/05 07:31:26;;;;;;;13.33;7.57;;;-1.00;99.90;;;;;;5018318;28;20045;-87
2022/03/05 07:33:52;;;;;;;13.97;7.43;;;-0.90;99.90;;;;;;5031552;28;20045;-88
2022/03/05 07:36:19;;;;;;;13.00;7.70;;;-0.80;99.90;;;;;;5033290;28;20034;-88
2022/03/05 07:38:44;;;;;;;13.03;7.67;;;-0.70;99.90;;;;;;5015561;28;20422;-87
2022/03/05 07:41:11;;;;;;;14.27;8.10;;;-0.70;99.90;;;;;;5006356;28;20033;-87
2022/03/05 07:43:37;;;;;;;13.20;7.63;;;-0.60;99.90;;;;;;5007271;28;20040;-85
2022/03/05 07:46:03;;;;;;;12.53;7.90;;;-0.50;99.90;;;;;;5025581;28;20383;-85
2022/03/05 07:48:28;;;;;;;14.60;8.63;;;-0.40;99.90;;;;;;5015533;28;20037;-85
2022/03/05 07:50:54;;;;;;;14.03;8.13;;;-0.30;99.90;;;;;;5023761;28;20093;-88
2022/03/05 07:53:19;;;;;;;17.80;8.47;;;-0.20;99.90;;;;;;5003103;28;20041;-87
2022/03/05 07:55:46;;;;;;;15.43;8.67;;;-0.10;99.90;;;;;;5047715;28;20052;-87
2022/03/05 07:58:12;;;;;;;14.93;8.27;;;0.00;99.90;;;;;;4998988;28;20029;-87
2022/03/05 08:00:37;;;;;;;14.03;8.23;;;0.10;99.90;;;;;;5015626;28;20037;-87
2022/03/05 08:03:03;;;;;;;16.67;9.20;;;0.20;99.90;;;;;;5032731;28;20060;-85
2022/03/05 08:05:29;;;;;;;16.97;8.57;;;0.30;99.90;;;;;;5033459;28;20124;-86
2022/03/05 08:07:54;;;;;;;17.70;9.30;;;0.40;99.90;;;;;;5029338;28;20140;-87
2022/03/05 08:10:20;;;;;;;15.90;9.33;;;0.40;99.90;;;;;;5028911;28;20041;-87
2022/03/05 08:12:46;;;;;;;15.27;8.87;;;0.50;99.90;;;;;;5015189;28;20045;-85
2022/03/05 08:15:12;;;;;;;15.53;9.17;;;0.60;99.90;;;;;;5015293;28;20068;-87
2022/03/05 08:17:52;;;;;;;17.47;9.87;;;0.70;99.90;;;;;;5032819;28;20060;-87
2022/03/05 08:20:18;;;;;;;16.30;9.60;;;0.80;99.90;;;;;;5049187;28;20040;-86
2022/03/05 08:22:44;;;;;;;17.00;9.77;;;0.90;99.90;;;;;;5032527;28;20087;-86
2022/03/05 08:25:10;;;;;;;15.10;9.00;;;1.10;99.90;;;;;;5031726;28;20048;-85
2022/03/05 08:27:35;;;;;;;17.07;9.60;;;1.20;99.90;;;;;;5031331;28;20033;-87
2022/03/05 08:30:02;;;;;;;15.70;9.63;;;1.20;99.90;;;;;;5012880;28;20568;-87
2022/03/05 08:32:27;;;;;;;16.50;9.50;;;1.30;99.90;;;;;;5026539;28;20076;-88
2022/03/05 08:34:53;;;;;;;17.07;9.67;;;1.40;99.90;;;;;;5031765;28;20072;-87
2022/03/05 08:37:19;;;;;;;16.77;9.50;;;1.50;99.90;;;;;;5032480;28;20071;-87
2022/03/05 08:39:44;;;;;;;19.53;10.13;;;1.60;99.90;;;;;;5016126;28;20120;-86
2022/03/05 08:42:10;;;;;;;16.27;9.70;;;1.70;99.90;;;;;;5029319;28;20574;-85
2022/03/05 08:44:36;;;;;;;16.40;10.30;;;1.70;99.90;;;;;;5027569;28;20103;-86
2022/03/05 08:47:01;;;;;;;17.97;9.87;;;1.80;99.90;;;;;;5005588;28;20406;-87
2022/03/05 08:49:27;;;;;;;16.30;9.83;;;1.90;99.90;;;;;;5025098;28;20044;-86
2022/03/05 08:51:53;;;;;;;16.53;10.30;;;2.40;99.90;;;;;;5034513;28;20029;-85
2022/03/05 08:54:20;;;;;;;17.80;10.03;;;2.00;99.90;;;;;;5022671;28;20075;-86
2022/03/05 08:56:46;;;;;;;18.53;10.70;;;2.00;99.90;;;;;;5028311;28;20148;-86
2022/03/05 08:59:11;;;;;;;17.97;10.13;;;2.10;99.90;;;;;;5030465;28;20052;-86
2022/03/05 09:01:37;;;;;;;15.73;9.37;;;2.10;99.90;;;;;;5016623;28;20036;-85
2022/03/05 09:04:04;;;;;;;16.57;10.47;;;2.20;99.90;;;;;;5027406;28;20037;-85
2022/03/05 09:06:29;;;;;;;19.47;10.93;;;2.30;99.90;;;;;;5028405;28;20033;-86
2022/03/05 09:08:55;;;;;;;19.10;11.00;;;2.40;99.90;;;;;;5013402;28;20411;-85
2022/03/05 09:11:21;;;;;;;20.23;11.20;;;2.40;99.90;;;;;;5013915;28;20419;-85
2022/03/05 09:13:46;;;;;;;17.20;10.47;;;2.50;99.90;;;;;;5014117;28;20045;-86
2022/03/05 09:16:12;;;;;;;18.77;10.40;;;2.60;99.90;;;;;;5014556;28;20106;-86
2022/03/05 09:18:38;;;;;;;16.63;9.87;;;2.60;99.90;;;;;;5029864;28;20120;-82
2022/03/05 09:21:03;;;;;;;18.63;11.07;;;2.60;99.90;;;;;;5031718;28;20115;-85
2022/03/05 09:23:29;;;;;;;19.13;10.67;;;2.70;99.90;;;;;;5014416;28;20041;-85
2022/03/05 09:25:54;;;;;;;18.13;10.70;;;2.70;99.90;;;;;;5026900;28;20529;-83
2022/03/05 09:28:20;;;;;;;18.53;10.70;;;2.80;99.90;;;;;;5036318;28;20045;-84
2022/03/05 09:30:45;;;;;;;15.93;9.67;;;2.90;99.90;;;;;;5033619;28;20045;-83
2022/03/05 09:33:11;;;;;;;18.33;11.27;;;2.90;99.90;;;;;;5028236;28;20036;-84
2022/03/05 09:35:38;;;;;;;17.93;10.37;;;3.00;99.90;;;;;;5019147;28;20063;-84
2022/03/05 09:38:04;;;;;;;19.30;11.23;;;3.00;99.90;;;;;;5036152;28;20041;-83
2022/03/05 09:40:30;;;;;;;18.83;11.07;;;3.00;99.90;;;;;;5035859;28;20044;-83
2022/03/05 09:42:56;;;;;;;19.37;11.40;;;3.10;99.90;;;;;;5032584;28;20041;-84
2022/03/05 09:45:21;;;;;;;19.20;10.90;;;3.20;99.90;;;;;;5018956;28;20526;-84
2022/03/05 09:47:47;;;;;;;17.17;10.35;;;3.20;99.90;;;;;;5035681;28;20044;-84
2022/03/05 09:50:13;;;;;;;21.00;11.60;;;3.30;99.90;;;;;;5019354;28;20067;-84
2022/03/05 09:52:39;;;;;;;19.50;11.10;;;3.30;99.90;;;;;;5036308;28;20428;-84
2022/03/05 09:55:06;;;;;;;21.00;11.67;;;3.40;99.90;;;;;;5035696;28;20037;-84
2022/03/05 09:57:31;;;;;;;20.63;11.50;;;3.50;99.90;;;;;;5035689;28;20045;-84
2022/03/05 09:59:57;;;;;;;19.35;10.95;;;3.50;99.90;;;;;;5019352;28;20410;-85
2022/03/05 10:02:22;;;;;;;20.85;11.60;;;3.70;99.90;;;;;;5035940;28;20041;-84
2022/03/05 10:04:48;;;;;;;19.38;11.13;;;3.70;99.90;;;;;;5035553;28;20321;-84
2022/03/05 10:07:18;;;;;;;20.77;11.20;;;3.80;99.90;;;;;;5035778;28;20499;-86
2022/03/05 10:09:45;;;;;;;20.98;11.40;;;4.00;99.90;;;;;;5035791;28;20051;-85
2022/03/05 10:12:30;;;;;;;18.98;11.25;;;3.90;99.90;;;;;;5035465;28;20049;-84
2022/03/05 10:15:17;;;;;;;19.05;10.75;;;3.90;99.90;;;;;;5035535;28;20044;-86
2022/03/05 10:17:55;;;;;;;19.38;11.10;;;3.90;99.90;;;;;;5035515;28;20086;-84
2022/03/05 10:20:25;;;;;;;22.65;11.65;;;4.00;99.90;;;;;;5031378;28;20033;-85
2022/03/05 10:22:59;;;;;;;18.40;11.43;;;4.00;99.90;;;;;;5034473;28;20033;-85
2022/03/05 10:25:43;;;;;;;26.17;12.15;;;4.10;99.90;;;;;;5002119;28;20480;-85
2022/03/05 10:28:15;;;;;;;19.38;10.25;;;4.10;99.90;;;;;;5035069;28;20033;-85
2022/03/05 10:30:46;;;;;;;19.60;11.05;;;4.20;99.90;;;;;;5033207;28;20041;-86
2022/03/05 10:33:36;;;;;;;20.00;11.68;;;4.40;99.90;;;;;;5030613;28;20064;-86
2022/03/05 10:36:05;;;;;;;21.65;11.10;;;4.50;99.90;;;;;;5026007;28;20051;-85
2022/03/05 10:38:54;;;;;;;18.33;10.55;;;4.50;99.90;;;;;;5037555;28;20048;-85
2022/03/05 10:41:40;;;;;;;23.10;12.63;;;4.50;99.90;;;;;;5034773;28;20045;-86
2022/03/05 10:44:15;;;;;;;21.88;12.73;;;4.60;99.90;;;;;;5028083;28;20041;-86
2022/03/05 10:46:59;;;;;;;19.70;11.57;;;4.60;99.90;;;;;;5015237;28;20075;-86
2022/03/05 10:49:27;;;;;;;20.87;12.33;;;4.70;99.90;;;;;;5018296;28;20139;-85
2022/03/05 10:52:02;;;;;;;19.73;11.55;;;4.70;99.90;;;;;;5015252;28;20029;-86
2022/03/05 10:54:32;;;;;;;18.90;11.25;;;4.80;99.90;;;;;;5031653;28;20392;-86
2022/03/05 10:57:06;;;;;;;19.92;11.38;;;4.90;99.90;;;;;;5015232;28;20049;-85
2022/03/05 10:59:39;;;;;;;20.85;11.73;;;4.90;99.90;;;;;;5018270;28;20037;-86
2022/03/05 11:02:09;;;;;;;23.35;12.00;;;5.00;99.90;;;;;;4998849;28;20041;-85
2022/03/05 11:04:36;;;;;;;20.67;12.27;;;5.10;99.90;;;;;;4999739;28;20451;-86
2022/03/05 11:07:04;;;;;;;22.17;12.48;;;5.20;99.90;;;;;;5030900;28;20044;-85
2022/03/05 11:09:31;;;;;;;23.92;13.27;;;5.30;99.90;;;;;;5015866;28;20036;-85
2022/03/05 11:11:59;;;;;;;20.48;12.63;;;5.30;99.90;;;;;;5047873;28;20056;-85
2022/03/05 11:14:25;;;;;;;20.73;12.07;;;5.40;99.90;;;;;;5025094;28;20052;-85
2022/03/05 11:16:51;;;;;;;19.52;12.25;;;5.50;99.90;;;;;;5017745;28;20037;-85
2022/03/05 11:19:16;;;;;;;20.13;12.25;;;5.60;99.90;;;;;;5015657;28;20040;-83
2022/03/05 11:21:43;;;;;;;22.67;12.27;;;5.70;99.90;;;;;;5018068;28;20041;-86
2022/03/05 11:24:12;;;;;;;21.00;12.40;;;5.70;99.90;;;;;;5034407;28;20037;-85
2022/03/05 11:26:38;;;;;;;20.02;11.80;;;5.80;99.90;;;;;;5032686;28;20086;-85
2022/03/05 11:29:04;;;;;;;19.63;12.07;;;5.90;99.90;;;;;;5034573;28;20037;-85
2022/03/05 11:31:33;;;;;;;20.13;12.43;;;6.00;99.90;;;;;;5015823;28;20102;-86
2022/03/05 11:34:19;;;;;;;20.75;12.40;;;6.10;99.90;;;;;;5014262;28;20042;-86
2022/03/05 11:36:49;;;;;;;19.65;12.35;;;6.10;99.90;;;;;;5031975;28;20041;-85
2022/03/05 11:39:21;;;;;;;22.30;12.65;;;6.20;99.90;;;;;;5017691;28;20410;-86
2022/03/05 11:41:49;;;;;;;20.67;12.77;;;6.20;99.90;;;;;;5029722;28;20032;-85
2022/03/05 11:44:16;;;;;;;24.50;13.30;;;6.20;99.90;;;;;;5048166;28;20041;-87
2022/03/05 11:46:42;;;;;;;21.27;12.32;;;6.30;99.90;;;;;;5007673;28;20097;-86
2022/03/05 11:49:10;;;;;;;21.23;11.85;;;6.50;99.90;;;;;;4999063;28;20499;-86
2022/03/05 11:51:58;;;;;;;20.13;12.32;;;6.50;99.90;;;;;;5019902;28;20045;-86
2022/03/05 11:54:25;;;;;;;26.17;12.75;;;6.70;99.90;;;;;;5014964;28;20049;-86
2022/03/05 11:57:08;;;;;;;22.73;12.98;;;6.70;99.90;;;;;;5016202;28;20144;-85
2022/03/05 11:59:39;;;;;;;19.25;12.02;;;6.90;99.90;;;;;;5024013;28;20087;-85
2022/03/05 12:02:05;;;;;;;22.20;12.30;;;7.00;99.90;;;;;;5006520;28;20044;-86
2022/03/05 12:04:32;;;;;;;20.83;12.75;;;7.10;99.90;;;;;;5028925;28;20091;-85
2022/03/05 12:07:10;;;;;;;19.63;11.95;;;7.20;99.90;;;;;;5025520;28;20394;-86
2022/03/05 12:09:45;;;;;;;20.98;12.30;;;7.20;99.90;;;;;;5023426;28;20049;-85
2022/03/05 12:12:17;;;;;;;19.58;12.15;;;7.30;99.90;;;;;;5023351;28;20033;-87
2022/03/05 12:14:55;;;;;;;19.05;12.15;;;7.30;99.90;;;;;;5024898;28;20041;-85
2022/03/05 12:17:23;;;;;;;20.45;12.20;;;7.40;99.90;;;;;;5014643;28;20041;-86
2022/03/05 12:19:48;;;;;;;21.92;12.20;;;7.50;99.90;;;;;;5030285;28;20087;-86
2022/03/05 12:22:15;;;;;;;21.38;12.93;;;7.50;99.90;;;;;;5030720;28;20782;-85
2022/03/05 12:24:41;;;;;;;20.60;11.90;;;7.60;99.90;;;;;;5013865;28;20041;-86
2022/03/05 12:27:14;;;;;;;19.83;11.70;;;7.80;99.90;;;;;;5021941;28;20048;-86
2022/03/05 12:29:47;;;;;;;20.23;11.77;;;7.90;99.90;;;;;;5003449;28;20037;-86
2022/03/05 12:32:17;;;;;;;17.77;11.40;;;8.10;99.90;;;;;;5033674;28;20645;-86
2022/03/05 12:34:42;;;;;;;20.40;11.95;;;8.20;99.90;;;;;;5033348;28;20045;-86
2022/03/05 12:37:09;;;;;;;19.73;11.88;;;8.30;99.90;;;;;;5020264;28;20040;-88
2022/03/05 12:39:40;;;;;;;21.90;13.18;;;8.40;99.90;;;;;;5024199;28;20029;-85